sensor_id;sensor_type;location;lat;lon;timestamp;P1;durP1;ratioP1;P2;durP2;ratioP2
20170;SDS011;10245;51.344;6.620;2023-04-03T00:00:28;5.80;;;4.33;;
20170;SDS011;10245;51.344;6.620;2023-04-03T00:02:52;7.17;;;5.00;;
20170;SDS011;10245;51.344;6.620;2023-04-03T00:05:16;8.80;;;5.07;;
20170;SDS011;10245;51.344;6.620;2023-04-03T00:07:39;8.63;;;5.47;;
20170;SDS011;10245;51.344;6.620;2023-04-03T00:10:03;5.30;;;4.73;;
20170;SDS011;10245;51.344;6.620;2023-04-03T00:12:27;8.17;;;5.20;;
20170;SDS011;10245;51.344;6.620;2023-04-03T00:14:51;11.60;;;6.33;;
20170;SDS011;10245;51.344;6.620;2023-04-03T00:17:15;11.60;;;6.60;;
20170;SDS011;10245;51.344;6.620;2023-04-03T00:19:39;9.87;;;7.57;;
20170;SDS011;10245;51.344;6.620;2023-04-03T00:22:02;11.63;;;7.53;;
20170;SDS011;10245;51.344;6.620;2023-04-03T00:24:25;11.73;;;6.83;;
20170;SDS011;10245;51.344;6.620;2023-04-03T00:26:49;13.27;;;7.23;;
20170;SDS011;10245;51.344;6.620;2023-04-03T00:29:13;9.43;;;6.20;;
20170;SDS011;10245;51.344;6.620;2023-04-03T00:31:36;13.43;;;7.63;;
20170;SDS011;10245;51.344;6.620;2023-04-03T00:34:01;10.80;;;7.60;;
20170;SDS011;10245;51.344;6.620;2023-04-03T00:36:24;10.40;;;7.57;;
20170;SDS011;10245;51.344;6.620;2023-04-03T00:38:48;12.17;;;7.40;;
20170;SDS011;10245;51.344;6.620;2023-04-03T00:41:11;11.60;;;7.53;;
20170;SDS011;10245;51.344;6.620;2023-04-03T00:43:35;13.03;;;7.83;;
20170;SDS011;10245;51.344;6.620;2023-04-03T00:45:58;12.20;;;7.47;;
20170;SDS011;10245;51.344;6.620;2023-04-03T00:48:24;11.33;;;7.27;;
20170;SDS011;10245;51.344;6.620;2023-04-03T00:50:53;12.80;;;7.63;;
20170;SDS011;10245;51.344;6.620;2023-04-03T00:53:18;10.33;;;7.00;;
20170;SDS011;10245;51.344;6.620;2023-04-03T00:55:45;10.10;;;7.00;;
20170;SDS011;10245;51.344;6.620;2023-04-03T00:58:11;14.00;;;7.90;;
20170;SDS011;10245;51.344;6.620;2023-04-03T01:00:36;10.10;;;7.43;;
20170;SDS011;10245;51.344;6.620;2023-04-03T01:03:02;12.63;;;7.90;;
20170;SDS011;10245;51.344;6.620;2023-04-03T01:05:26;11.03;;;7.53;;
20170;SDS011;10245;51.344;6.620;2023-04-03T01:07:51;15.50;;;8.73;;
20170;SDS011;10245;51.344;6.620;2023-04-03T01:10:16;10.80;;;7.40;;
20170;SDS011;10245;51.344;6.620;2023-04-03T01:12:42;10.97;;;8.00;;
20170;SDS011;10245;51.344;6.620;2023-04-03T01:15:09;12.27;;;8.23;;
20170;SDS011;10245;51.344;6.620;2023-04-03T01:17:35;11.23;;;8.13;;
20170;SDS011;10245;51.344;6.620;2023-04-03T01:20:14;12.00;;;7.57;;
20170;SDS011;10245;51.344;6.620;2023-04-03T01:23:38;9.57;;;7.20;;
20170;SDS011;10245;51.344;6.620;2023-04-03T01:26:17;10.77;;;7.03;;
20170;SDS011;10245;51.344;6.620;2023-04-03T01:28:41;11.83;;;7.30;;
20170;SDS011;10245;51.344;6.620;2023-04-03T01:31:06;11.43;;;7.37;;
20170;SDS011;10245;51.344;6.620;2023-04-03T01:33:39;13.10;;;7.67;;
20170;SDS011;10245;51.344;6.620;2023-04-03T01:36:04;9.50;;;7.03;;
20170;SDS011;10245;51.344;6.620;2023-04-03T01:38:29;11.90;;;7.30;;
20170;SDS011;10245;51.344;6.620;2023-04-03T01:40:52;11.30;;;7.60;;
20170;SDS011;10245;51.344;6.620;2023-04-03T01:43:16;11.80;;;8.23;;
20170;SDS011;10245;51.344;6.620;2023-04-03T01:45:40;11.40;;;8.57;;
20170;SDS011;10245;51.344;6.620;2023-04-03T01:48:03;13.47;;;7.87;;
20170;SDS011;10245;51.344;6.620;2023-04-03T01:50:28;12.17;;;7.70;;
20170;SDS011;10245;51.344;6.620;2023-04-03T01:52:51;12.13;;;8.67;;
20170;SDS011;10245;51.344;6.620;2023-04-03T01:55:15;13.80;;;8.83;;
20170;SDS011;10245;51.344;6.620;2023-04-03T01:57:38;13.00;;;8.80;;
20170;SDS011;10245;51.344;6.620;2023-04-03T02:00:02;14.27;;;8.90;;
20170;SDS011;10245;51.344;6.620;2023-04-03T02:02:33;14.20;;;9.40;;
20170;SDS011;10245;51.344;6.620;2023-04-03T02:04:56;14.93;;;9.30;;
20170;SDS011;10245;51.344;6.620;2023-04-03T02:07:21;15.63;;;9.10;;
20170;SDS011;10245;51.344;6.620;2023-04-03T02:09:44;13.40;;;8.50;;
20170;SDS011;10245;51.344;6.620;2023-04-03T02:12:08;17.80;;;8.30;;
20170;SDS011;10245;51.344;6.620;2023-04-03T02:14:31;16.33;;;7.70;;
20170;SDS011;10245;51.344;6.620;2023-04-03T02:16:54;17.43;;;7.83;;
20170;SDS011;10245;51.344;6.620;2023-04-03T02:19:18;11.33;;;7.77;;
20170;SDS011;10245;51.344;6.620;2023-04-03T02:21:42;14.67;;;7.73;;
20170;SDS011;10245;51.344;6.620;2023-04-03T02:24:07;15.90;;;7.73;;
20170;SDS011;10245;51.344;6.620;2023-04-03T02:26:30;16.13;;;7.03;;
20170;SDS011;10245;51.344;6.620;2023-04-03T02:28:54;12.87;;;6.93;;
20170;SDS011;10245;51.344;6.620;2023-04-03T02:31:17;14.53;;;6.70;;
20170;SDS011;10245;51.344;6.620;2023-04-03T02:33:41;15.27;;;7.37;;
20170;SDS011;10245;51.344;6.620;2023-04-03T02:36:07;14.23;;;6.63;;
20170;SDS011;10245;51.344;6.620;2023-04-03T02:38:34;10.57;;;6.07;;
20170;SDS011;10245;51.344;6.620;2023-04-03T02:41:01;11.93;;;6.27;;
20170;SDS011;10245;51.344;6.620;2023-04-03T02:43:26;11.97;;;5.80;;
20170;SDS011;10245;51.344;6.620;2023-04-03T02:45:49;9.70;;;5.33;;
20170;SDS011;10245;51.344;6.620;2023-04-03T02:48:13;8.40;;;5.20;;
20170;SDS011;10245;51.344;6.620;2023-04-03T02:50:38;14.50;;;5.90;;
20170;SDS011;10245;51.344;6.620;2023-04-03T02:53:01;10.27;;;5.37;;
20170;SDS011;10245;51.344;6.620;2023-04-03T02:55:24;8.03;;;5.10;;
20170;SDS011;10245;51.344;6.620;2023-04-03T02:57:51;9.57;;;5.23;;
20170;SDS011;10245;51.344;6.620;2023-04-03T03:00:14;12.77;;;5.47;;
20170;SDS011;10245;51.344;6.620;2023-04-03T03:02:38;13.60;;;6.93;;
20170;SDS011;10245;51.344;6.620;2023-04-03T03:05:02;20.00;;;8.03;;
20170;SDS011;10245;51.344;6.620;2023-04-03T03:07:26;18.47;;;8.63;;
20170;SDS011;10245;51.344;6.620;2023-04-03T03:09:49;17.27;;;8.00;;
20170;SDS011;10245;51.344;6.620;2023-04-03T03:12:12;15.87;;;7.40;;
20170;SDS011;10245;51.344;6.620;2023-04-03T03:14:37;13.97;;;5.90;;
20170;SDS011;10245;51.344;6.620;2023-04-03T03:17:02;12.30;;;5.53;;
20170;SDS011;10245;51.344;6.620;2023-04-03T03:19:25;10.70;;;5.83;;
20170;SDS011;10245;51.344;6.620;2023-04-03T03:21:49;10.97;;;5.63;;
20170;SDS011;10245;51.344;6.620;2023-04-03T03:24:13;11.10;;;5.00;;
20170;SDS011;10245;51.344;6.620;2023-04-03T03:26:37;10.40;;;5.33;;
20170;SDS011;10245;51.344;6.620;2023-04-03T03:29:00;10.53;;;4.27;;
20170;SDS011;10245;51.344;6.620;2023-04-03T03:31:25;11.37;;;4.53;;
20170;SDS011;10245;51.344;6.620;2023-04-03T03:33:49;7.30;;;4.03;;
20170;SDS011;10245;51.344;6.620;2023-04-03T03:36:13;8.87;;;4.33;;
20170;SDS011;10245;51.344;6.620;2023-04-03T03:38:36;8.13;;;4.37;;
20170;SDS011;10245;51.344;6.620;2023-04-03T03:41:00;7.40;;;4.37;;
20170;SDS011;10245;51.344;6.620;2023-04-03T03:43:26;10.10;;;4.70;;
20170;SDS011;10245;51.344;6.620;2023-04-03T03:45:50;12.33;;;5.40;;
20170;SDS011;10245;51.344;6.620;2023-04-03T03:48:17;9.60;;;6.07;;
20170;SDS011;10245;51.344;6.620;2023-04-03T03:50:42;12.27;;;6.00;;
20170;SDS011;10245;51.344;6.620;2023-04-03T03:53:06;10.33;;;5.57;;
20170;SDS011;10245;51.344;6.620;2023-04-03T03:55:30;8.83;;;4.90;;
20170;SDS011;10245;51.344;6.620;2023-04-03T03:57:53;10.23;;;4.83;;
20170;SDS011;10245;51.344;6.620;2023-04-03T04:00:17;10.60;;;4.57;;
20170;SDS011;10245;51.344;6.620;2023-04-03T04:02:47;10.43;;;4.63;;
20170;SDS011;10245;51.344;6.620;2023-04-03T04:05:15;12.87;;;4.53;;
20170;SDS011;10245;51.344;6.620;2023-04-03T04:07:39;10.67;;;4.40;;
20170;SDS011;10245;51.344;6.620;2023-04-03T04:10:03;9.63;;;4.73;;
20170;SDS011;10245;51.344;6.620;2023-04-03T04:12:27;8.27;;;3.93;;
20170;SDS011;10245;51.344;6.620;2023-04-03T04:14:51;7.90;;;3.73;;
20170;SDS011;10245;51.344;6.620;2023-04-03T04:17:15;11.27;;;5.70;;
20170;SDS011;10245;51.344;6.620;2023-04-03T04:19:38;13.60;;;5.63;;
20170;SDS011;10245;51.344;6.620;2023-04-03T04:22:04;9.03;;;4.30;;
20170;SDS011;10245;51.344;6.620;2023-04-03T04:24:27;9.13;;;4.37;;
20170;SDS011;10245;51.344;6.620;2023-04-03T04:26:51;8.80;;;3.90;;
20170;SDS011;10245;51.344;6.620;2023-04-03T04:29:15;6.93;;;4.13;;
20170;SDS011;10245;51.344;6.620;2023-04-03T04:31:42;11.93;;;4.50;;
20170;SDS011;10245;51.344;6.620;2023-04-03T04:34:05;8.37;;;3.83;;
20170;SDS011;10245;51.344;6.620;2023-04-03T04:36:30;11.53;;;4.63;;
20170;SDS011;10245;51.344;6.620;2023-04-03T04:38:55;13.80;;;5.30;;
20170;SDS011;10245;51.344;6.620;2023-04-03T04:41:21;17.07;;;6.10;;
20170;SDS011;10245;51.344;6.620;2023-04-03T04:43:45;11.30;;;4.07;;
20170;SDS011;10245;51.344;6.620;2023-04-03T04:46:09;7.37;;;3.57;;
20170;SDS011;10245;51.344;6.620;2023-04-03T04:48:39;8.37;;;3.60;;
20170;SDS011;10245;51.344;6.620;2023-04-03T04:51:04;7.90;;;3.80;;
20170;SDS011;10245;51.344;6.620;2023-04-03T04:53:30;9.30;;;3.57;;
20170;SDS011;10245;51.344;6.620;2023-04-03T04:55:54;6.23;;;3.40;;
20170;SDS011;10245;51.344;6.620;2023-04-03T04:58:19;5.73;;;3.13;;
20170;SDS011;10245;51.344;6.620;2023-04-03T05:00:42;7.57;;;4.03;;
20170;SDS011;10245;51.344;6.620;2023-04-03T05:03:06;11.13;;;3.70;;
20170;SDS011;10245;51.344;6.620;2023-04-03T05:05:29;8.77;;;3.37;;
20170;SDS011;10245;51.344;6.620;2023-04-03T05:07:53;10.87;;;4.43;;
20170;SDS011;10245;51.344;6.620;2023-04-03T05:10:16;12.37;;;4.40;;
20170;SDS011;10245;51.344;6.620;2023-04-03T05:12:42;9.00;;;4.33;;
20170;SDS011;10245;51.344;6.620;2023-04-03T05:15:06;10.03;;;3.50;;
20170;SDS011;10245;51.344;6.620;2023-04-03T05:17:31;8.20;;;3.50;;
20170;SDS011;10245;51.344;6.620;2023-04-03T05:19:55;9.23;;;3.83;;
20170;SDS011;10245;51.344;6.620;2023-04-03T05:22:20;12.70;;;4.97;;
20170;SDS011;10245;51.344;6.620;2023-04-03T05:24:46;11.60;;;3.83;;
20170;SDS011;10245;51.344;6.620;2023-04-03T05:27:11;11.80;;;4.70;;
20170;SDS011;10245;51.344;6.620;2023-04-03T05:29:39;11.53;;;5.03;;
20170;SDS011;10245;51.344;6.620;2023-04-03T05:32:10;9.50;;;4.10;;
20170;SDS011;10245;51.344;6.620;2023-04-03T05:34:33;10.87;;;3.87;;
20170;SDS011;10245;51.344;6.620;2023-04-03T05:36:57;7.87;;;3.97;;
20170;SDS011;10245;51.344;6.620;2023-04-03T05:39:22;8.03;;;3.20;;
20170;SDS011;10245;51.344;6.620;2023-04-03T05:41:45;8.77;;;3.20;;
20170;SDS011;10245;51.344;6.620;2023-04-03T05:44:09;7.53;;;3.03;;
20170;SDS011;10245;51.344;6.620;2023-04-03T05:46:34;7.87;;;3.50;;
20170;SDS011;10245;51.344;6.620;2023-04-03T05:49:00;9.27;;;3.63;;
20170;SDS011;10245;51.344;6.620;2023-04-03T05:51:28;7.37;;;3.57;;
20170;SDS011;10245;51.344;6.620;2023-04-03T05:54:06;7.77;;;3.20;;
20170;SDS011;10245;51.344;6.620;2023-04-03T05:56:37;6.17;;;3.40;;
20170;SDS011;10245;51.344;6.620;2023-04-03T05:59:00;8.83;;;3.43;;
20170;SDS011;10245;51.344;6.620;2023-04-03T06:01:23;6.63;;;3.30;;
20170;SDS011;10245;51.344;6.620;2023-04-03T06:03:49;10.07;;;4.20;;
20170;SDS011;10245;51.344;6.620;2023-04-03T06:06:13;8.97;;;3.93;;
20170;SDS011;10245;51.344;6.620;2023-04-03T06:08:37;6.03;;;3.50;;
20170;SDS011;10245;51.344;6.620;2023-04-03T06:11:00;11.73;;;3.43;;
20170;SDS011;10245;51.344;6.620;2023-04-03T06:13:24;8.93;;;3.80;;
20170;SDS011;10245;51.344;6.620;2023-04-03T06:15:48;11.47;;;3.90;;
20170;SDS011;10245;51.344;6.620;2023-04-03T06:18:11;10.30;;;4.10;;
20170;SDS011;10245;51.344;6.620;2023-04-03T06:20:36;13.23;;;6.33;;
20170;SDS011;10245;51.344;6.620;2023-04-03T06:23:00;10.97;;;3.93;;
20170;SDS011;10245;51.344;6.620;2023-04-03T06:25:24;9.93;;;4.20;;
20170;SDS011;10245;51.344;6.620;2023-04-03T06:27:48;10.10;;;4.00;;
20170;SDS011;10245;51.344;6.620;2023-04-03T06:30:11;9.77;;;4.37;;
20170;SDS011;10245;51.344;6.620;2023-04-03T06:32:35;9.53;;;4.40;;
20170;SDS011;10245;51.344;6.620;2023-04-03T06:34:59;10.40;;;4.40;;
20170;SDS011;10245;51.344;6.620;2023-04-03T06:37:23;11.63;;;4.77;;
20170;SDS011;10245;51.344;6.620;2023-04-03T06:39:49;12.87;;;5.70;;
20170;SDS011;10245;51.344;6.620;2023-04-03T06:42:12;12.93;;;4.77;;
20170;SDS011;10245;51.344;6.620;2023-04-03T06:44:51;11.10;;;4.03;;
20170;SDS011;10245;51.344;6.620;2023-04-03T06:47:15;14.83;;;4.93;;
20170;SDS011;10245;51.344;6.620;2023-04-03T06:49:39;13.07;;;5.50;;
20170;SDS011;10245;51.344;6.620;2023-04-03T06:52:04;21.03;;;7.20;;
20170;SDS011;10245;51.344;6.620;2023-04-03T06:54:29;17.40;;;7.70;;
20170;SDS011;10245;51.344;6.620;2023-04-03T06:56:52;12.60;;;5.70;;
20170;SDS011;10245;51.344;6.620;2023-04-03T06:59:16;7.90;;;4.10;;
20170;SDS011;10245;51.344;6.620;2023-04-03T07:01:41;10.93;;;4.27;;
20170;SDS011;10245;51.344;6.620;2023-04-03T07:04:04;11.30;;;4.95;;
20170;SDS011;10245;51.344;6.620;2023-04-03T07:06:28;14.13;;;4.97;;
20170;SDS011;10245;51.344;6.620;2023-04-03T07:08:52;10.77;;;5.07;;
20170;SDS011;10245;51.344;6.620;2023-04-03T07:11:17;14.33;;;4.73;;
20170;SDS011;10245;51.344;6.620;2023-04-03T07:13:41;9.53;;;3.70;;
20170;SDS011;10245;51.344;6.620;2023-04-03T07:16:05;8.35;;;3.90;;
20170;SDS011;10245;51.344;6.620;2023-04-03T07:18:30;9.25;;;3.80;;
20170;SDS011;10245;51.344;6.620;2023-04-03T07:20:53;7.87;;;3.77;;
20170;SDS011;10245;51.344;6.620;2023-04-03T07:23:17;7.43;;;3.13;;
20170;SDS011;10245;51.344;6.620;2023-04-03T07:25:42;7.32;;;2.95;;
20170;SDS011;10245;51.344;6.620;2023-04-03T07:28:07;6.95;;;3.65;;
20170;SDS011;10245;51.344;6.620;2023-04-03T07:30:31;8.85;;;3.78;;
20170;SDS011;10245;51.344;6.620;2023-04-03T07:32:54;7.00;;;3.40;;
20170;SDS011;10245;51.344;6.620;2023-04-03T07:35:18;12.65;;;4.38;;
20170;SDS011;10245;51.344;6.620;2023-04-03T07:37:41;8.00;;;3.58;;
20170;SDS011;10245;51.344;6.620;2023-04-03T07:40:06;10.32;;;3.90;;
20170;SDS011;10245;51.344;6.620;2023-04-03T07:42:31;8.43;;;3.13;;
20170;SDS011;10245;51.344;6.620;2023-04-03T07:44:55;7.32;;;3.17;;
20170;SDS011;10245;51.344;6.620;2023-04-03T07:47:19;9.45;;;3.75;;
20170;SDS011;10245;51.344;6.620;2023-04-03T07:49:43;9.85;;;4.15;;
20170;SDS011;10245;51.344;6.620;2023-04-03T07:52:06;11.23;;;4.30;;
20170;SDS011;10245;51.344;6.620;2023-04-03T07:54:31;7.05;;;3.40;;
20170;SDS011;10245;51.344;6.620;2023-04-03T07:56:54;6.47;;;3.20;;
20170;SDS011;10245;51.344;6.620;2023-04-03T07:59:18;11.18;;;4.05;;
20170;SDS011;10245;51.344;6.620;2023-04-03T08:01:43;7.63;;;3.17;;
20170;SDS011;10245;51.344;6.620;2023-04-03T08:04:07;7.57;;;3.75;;
20170;SDS011;10245;51.344;6.620;2023-04-03T08:06:30;8.43;;;3.80;;
20170;SDS011;10245;51.344;6.620;2023-04-03T08:09:07;10.80;;;4.00;;
20170;SDS011;10245;51.344;6.620;2023-04-03T08:11:30;5.65;;;3.63;;
20170;SDS011;10245;51.344;6.620;2023-04-03T08:13:54;8.70;;;3.75;;
20170;SDS011;10245;51.344;6.620;2023-04-03T08:16:18;9.38;;;3.55;;
20170;SDS011;10245;51.344;6.620;2023-04-03T08:18:46;8.32;;;3.10;;
20170;SDS011;10245;51.344;6.620;2023-04-03T08:21:10;7.40;;;3.15;;
20170;SDS011;10245;51.344;6.620;2023-04-03T08:23:35;4.97;;;2.70;;
20170;SDS011;10245;51.344;6.620;2023-04-03T08:25:59;6.60;;;3.30;;
20170;SDS011;10245;51.344;6.620;2023-04-03T08:28:28;17.25;;;2.88;;
20170;SDS011;10245;51.344;6.620;2023-04-03T08:30:51;7.53;;;2.88;;
20170;SDS011;10245;51.344;6.620;2023-04-03T08:33:15;8.20;;;3.15;;
20170;SDS011;10245;51.344;6.620;2023-04-03T08:35:40;6.05;;;2.80;;
20170;SDS011;10245;51.344;6.620;2023-04-03T08:38:04;7.30;;;2.53;;
20170;SDS011;10245;51.344;6.620;2023-04-03T08:40:28;5.75;;;2.30;;
20170;SDS011;10245;51.344;6.620;2023-04-03T08:42:54;10.57;;;2.25;;
20170;SDS011;10245;51.344;6.620;2023-04-03T08:45:35;5.53;;;2.17;;
20170;SDS011;10245;51.344;6.620;2023-04-03T08:48:06;5.05;;;2.30;;
20170;SDS011;10245;51.344;6.620;2023-04-03T08:50:36;4.57;;;2.13;;
20170;SDS011;10245;51.344;6.620;2023-04-03T08:53:04;5.30;;;2.70;;
20170;SDS011;10245;51.344;6.620;2023-04-03T08:55:34;3.63;;;2.15;;
20170;SDS011;10245;51.344;6.620;2023-04-03T08:58:06;5.88;;;2.25;;
20170;SDS011;10245;51.344;6.620;2023-04-03T09:00:34;5.32;;;2.15;;
20170;SDS011;10245;51.344;6.620;2023-04-03T09:03:10;6.13;;;2.40;;
20170;SDS011;10245;51.344;6.620;2023-04-03T09:05:39;3.40;;;1.77;;
20170;SDS011;10245;51.344;6.620;2023-04-03T09:08:12;4.43;;;2.13;;
20170;SDS011;10245;51.344;6.620;2023-04-03T09:10:45;3.67;;;1.85;;
20170;SDS011;10245;51.344;6.620;2023-04-03T09:13:10;3.85;;;2.20;;
20170;SDS011;10245;51.344;6.620;2023-04-03T09:15:42;5.75;;;2.10;;
20170;SDS011;10245;51.344;6.620;2023-04-03T09:18:11;5.57;;;2.10;;
20170;SDS011;10245;51.344;6.620;2023-04-03T09:20:44;4.50;;;1.88;;
20170;SDS011;10245;51.344;6.620;2023-04-03T09:23:19;5.55;;;1.80;;
20170;SDS011;10245;51.344;6.620;2023-04-03T09:25:49;4.57;;;1.90;;
20170;SDS011;10245;51.344;6.620;2023-04-03T09:28:16;5.80;;;1.80;;
20170;SDS011;10245;51.344;6.620;2023-04-03T09:30:39;3.90;;;1.70;;
20170;SDS011;10245;51.344;6.620;2023-04-03T09:33:03;5.65;;;1.80;;
20170;SDS011;10245;51.344;6.620;2023-04-03T09:35:29;3.60;;;1.70;;
20170;SDS011;10245;51.344;6.620;2023-04-03T09:38:17;4.03;;;1.83;;
20170;SDS011;10245;51.344;6.620;2023-04-03T09:40:44;8.02;;;2.05;;
20170;SDS011;10245;51.344;6.620;2023-04-03T09:43:19;3.13;;;1.65;;
20170;SDS011;10245;51.344;6.620;2023-04-03T09:45:49;2.47;;;1.15;;
20170;SDS011;10245;51.344;6.620;2023-04-03T09:48:16;3.75;;;1.40;;
20170;SDS011;10245;51.344;6.620;2023-04-03T09:50:52;7.30;;;1.90;;
20170;SDS011;10245;51.344;6.620;2023-04-03T09:53:27;4.60;;;2.05;;
20170;SDS011;10245;51.344;6.620;2023-04-03T09:55:54;4.25;;;1.35;;
20170;SDS011;10245;51.344;6.620;2023-04-03T09:58:26;4.18;;;1.48;;
20170;SDS011;10245;51.344;6.620;2023-04-03T10:01:20;3.00;;;1.25;;
20170;SDS011;10245;51.344;6.620;2023-04-03T10:04:01;3.10;;;1.00;;
20170;SDS011;10245;51.344;6.620;2023-04-03T10:06:29;7.30;;;2.28;;
20170;SDS011;10245;51.344;6.620;2023-04-03T10:08:59;4.78;;;1.33;;
20170;SDS011;10245;51.344;6.620;2023-04-03T10:11:25;5.28;;;1.30;;
20170;SDS011;10245;51.344;6.620;2023-04-03T10:13:50;3.55;;;1.20;;
20170;SDS011;10245;51.344;6.620;2023-04-03T10:16:20;3.65;;;1.50;;
20170;SDS011;10245;51.344;6.620;2023-04-03T10:21:48;5.80;;;1.80;;
20170;SDS011;10245;51.344;6.620;2023-04-03T10:24:18;4.43;;;2.00;;
20170;SDS011;10245;51.344;6.620;2023-04-03T10:26:51;4.10;;;1.63;;
20170;SDS011;10245;51.344;6.620;2023-04-03T10:29:24;3.88;;;1.33;;
20170;SDS011;10245;51.344;6.620;2023-04-03T10:32:03;4.05;;;1.20;;
20170;SDS011;10245;51.344;6.620;2023-04-03T10:34:45;5.22;;;1.33;;
20170;SDS011;10245;51.344;6.620;2023-04-03T10:37:25;4.32;;;1.40;;
20170;SDS011;10245;51.344;6.620;2023-04-03T10:40:01;2.92;;;1.38;;
20170;SDS011;10245;51.344;6.620;2023-04-03T10:42:34;3.83;;;1.63;;
20170;SDS011;10245;51.344;6.620;2023-04-03T10:45:15;2.40;;;1.33;;
20170;SDS011;10245;51.344;6.620;2023-04-03T10:47:46;3.67;;;1.30;;
20170;SDS011;10245;51.344;6.620;2023-04-03T10:50:29;4.63;;;1.45;;
20170;SDS011;10245;51.344;6.620;2023-04-03T10:53:03;2.83;;;1.27;;
20170;SDS011;10245;51.344;6.620;2023-04-03T10:55:37;3.67;;;1.30;;
20170;SDS011;10245;51.344;6.620;2023-04-03T10:58:10;3.75;;;1.60;;
20170;SDS011;10245;51.344;6.620;2023-04-03T11:00:44;7.00;;;1.90;;
20170;SDS011;10245;51.344;6.620;2023-04-03T11:03:12;3.40;;;1.88;;
20170;SDS011;10245;51.344;6.620;2023-04-03T11:05:40;3.53;;;1.35;;
20170;SDS011;10245;51.344;6.620;2023-04-03T11:08:08;4.35;;;1.70;;
20170;SDS011;10245;51.344;6.620;2023-04-03T11:10:41;3.92;;;1.48;;
20170;SDS011;10245;51.344;6.620;2023-04-03T11:13:10;4.65;;;1.67;;
20170;SDS011;10245;51.344;6.620;2023-04-03T11:15:37;4.35;;;1.20;;
20170;SDS011;10245;51.344;6.620;2023-04-03T11:18:02;4.78;;;1.63;;
20170;SDS011;10245;51.344;6.620;2023-04-03T11:20:32;2.60;;;1.30;;
20170;SDS011;10245;51.344;6.620;2023-04-03T11:23:00;5.43;;;1.40;;
20170;SDS011;10245;51.344;6.620;2023-04-03T11:25:26;3.00;;;1.60;;
20170;SDS011;10245;51.344;6.620;2023-04-03T11:27:57;2.05;;;1.38;;
20170;SDS011;10245;51.344;6.620;2023-04-03T11:30:24;2.92;;;1.30;;
20170;SDS011;10245;51.344;6.620;2023-04-03T11:33:02;5.95;;;1.60;;
20170;SDS011;10245;51.344;6.620;2023-04-03T11:35:42;2.67;;;1.40;;
20170;SDS011;10245;51.344;6.620;2023-04-03T11:38:07;2.17;;;1.23;;
20170;SDS011;10245;51.344;6.620;2023-04-03T11:40:43;3.55;;;1.92;;
20170;SDS011;10245;51.344;6.620;2023-04-03T11:43:17;3.70;;;1.52;;
20170;SDS011;10245;51.344;6.620;2023-04-03T11:45:50;4.60;;;1.90;;
20170;SDS011;10245;51.344;6.620;2023-04-03T12:12:56;6.57;;;2.03;;
20170;SDS011;10245;51.344;6.620;2023-04-03T12:15:25;5.75;;;2.10;;
20170;SDS011;10245;51.344;6.620;2023-04-03T12:21:24;3.83;;;1.38;;
20170;SDS011;10245;51.344;6.620;2023-04-03T12:24:32;1.98;;;1.65;;
20170;SDS011;10245;51.344;6.620;2023-04-03T12:27:01;6.00;;;1.73;;
20170;SDS011;10245;51.344;6.620;2023-04-03T12:29:33;5.03;;;2.00;;
20170;SDS011;10245;51.344;6.620;2023-04-03T12:32:06;5.07;;;2.42;;
20170;SDS011;10245;51.344;6.620;2023-04-03T12:34:53;4.30;;;2.60;;
20170;SDS011;10245;51.344;6.620;2023-04-03T12:37:38;6.78;;;2.00;;
20170;SDS011;10245;51.344;6.620;2023-04-03T12:40:17;2.15;;;1.50;;
20170;SDS011;10245;51.344;6.620;2023-04-03T12:43:02;4.32;;;1.50;;
20170;SDS011;10245;51.344;6.620;2023-04-03T12:45:41;4.35;;;1.52;;
20170;SDS011;10245;51.344;6.620;2023-04-03T12:48:11;6.28;;;1.90;;
20170;SDS011;10245;51.344;6.620;2023-04-03T12:50:39;5.03;;;2.03;;
20170;SDS011;10245;51.344;6.620;2023-04-03T12:53:05;4.80;;;1.40;;
20170;SDS011;10245;51.344;6.620;2023-04-03T12:55:35;3.70;;;1.90;;
20170;SDS011;10245;51.344;6.620;2023-04-03T12:58:12;4.80;;;1.70;;
20170;SDS011;10245;51.344;6.620;2023-04-03T13:00:38;4.20;;;1.83;;
20170;SDS011;10245;51.344;6.620;2023-04-03T13:03:02;5.32;;;2.03;;
20170;SDS011;10245;51.344;6.620;2023-04-03T13:05:28;5.03;;;1.58;;
20170;SDS011;10245;51.344;6.620;2023-04-03T13:07:58;4.93;;;1.52;;
20170;SDS011;10245;51.344;6.620;2023-04-03T13:10:23;3.63;;;1.13;;
20170;SDS011;10245;51.344;6.620;2023-04-03T13:12:47;4.40;;;1.52;;
20170;SDS011;10245;51.344;6.620;2023-04-03T13:15:14;5.13;;;2.15;;
20170;SDS011;10245;51.344;6.620;2023-04-03T13:17:41;3.13;;;1.60;;
20170;SDS011;10245;51.344;6.620;2023-04-03T13:20:12;3.13;;;1.60;;
20170;SDS011;10245;51.344;6.620;2023-04-03T13:22:38;3.08;;;1.50;;
20170;SDS011;10245;51.344;6.620;2023-04-03T13:25:13;2.75;;;1.48;;
20170;SDS011;10245;51.344;6.620;2023-04-03T13:27:38;2.33;;;1.50;;
20170;SDS011;10245;51.344;6.620;2023-04-03T13:30:05;4.68;;;1.38;;
20170;SDS011;10245;51.344;6.620;2023-04-03T13:32:44;3.25;;;1.70;;
20170;SDS011;10245;51.344;6.620;2023-04-03T13:37:53;7.28;;;2.30;;
20170;SDS011;10245;51.344;6.620;2023-04-03T13:40:19;3.20;;;1.58;;
20170;SDS011;10245;51.344;6.620;2023-04-03T13:42:42;2.17;;;1.60;;
20170;SDS011;10245;51.344;6.620;2023-04-03T13:45:08;3.85;;;1.70;;
20170;SDS011;10245;51.344;6.620;2023-04-03T13:47:42;4.65;;;1.60;;
20170;SDS011;10245;51.344;6.620;2023-04-03T13:50:13;5.47;;;1.60;;
20170;SDS011;10245;51.344;6.620;2023-04-03T13:52:41;4.85;;;1.70;;
20170;SDS011;10245;51.344;6.620;2023-04-03T13:55:15;1.75;;;1.27;;
20170;SDS011;10245;51.344;6.620;2023-04-03T13:57:52;3.28;;;1.92;;
20170;SDS011;10245;51.344;6.620;2023-04-03T14:00:19;3.90;;;2.00;;
20170;SDS011;10245;51.344;6.620;2023-04-03T14:02:58;2.95;;;1.55;;
20170;SDS011;10245;51.344;6.620;2023-04-03T14:05:22;5.35;;;1.67;;
20170;SDS011;10245;51.344;6.620;2023-04-03T14:07:46;6.13;;;1.60;;
20170;SDS011;10245;51.344;6.620;2023-04-03T14:10:09;5.82;;;1.52;;
20170;SDS011;10245;51.344;6.620;2023-04-03T14:12:35;3.30;;;1.70;;
20170;SDS011;10245;51.344;6.620;2023-04-03T14:15:03;3.72;;;1.60;;
20170;SDS011;10245;51.344;6.620;2023-04-03T14:17:37;6.03;;;1.80;;
20170;SDS011;10245;51.344;6.620;2023-04-03T14:20:01;3.95;;;1.63;;
20170;SDS011;10245;51.344;6.620;2023-04-03T14:22:26;5.80;;;1.70;;
20170;SDS011;10245;51.344;6.620;2023-04-03T14:24:52;5.80;;;1.70;;
20170;SDS011;10245;51.344;6.620;2023-04-03T14:27:17;4.18;;;1.52;;
20170;SDS011;10245;51.344;6.620;2023-04-03T14:29:44;3.90;;;1.83;;
20170;SDS011;10245;51.344;6.620;2023-04-03T14:32:09;4.70;;;1.40;;
20170;SDS011;10245;51.344;6.620;2023-04-03T14:34:35;3.00;;;1.60;;
20170;SDS011;10245;51.344;6.620;2023-04-03T14:36:58;4.78;;;1.83;;
20170;SDS011;10245;51.344;6.620;2023-04-03T14:39:22;3.67;;;1.73;;
20170;SDS011;10245;51.344;6.620;2023-04-03T14:41:46;5.35;;;1.73;;
20170;SDS011;10245;51.344;6.620;2023-04-03T14:44:09;2.88;;;1.40;;
20170;SDS011;10245;51.344;6.620;2023-04-03T14:46:35;5.43;;;1.75;;
20170;SDS011;10245;51.344;6.620;2023-04-03T14:49:17;5.40;;;1.90;;
20170;SDS011;10245;51.344;6.620;2023-04-03T14:51:44;5.65;;;2.00;;
20170;SDS011;10245;51.344;6.620;2023-04-03T14:54:10;5.72;;;1.70;;
20170;SDS011;10245;51.344;6.620;2023-04-03T14:56:36;4.30;;;1.70;;
20170;SDS011;10245;51.344;6.620;2023-04-03T14:59:00;3.42;;;1.58;;
20170;SDS011;10245;51.344;6.620;2023-04-03T15:01:25;4.78;;;1.80;;
20170;SDS011;10245;51.344;6.620;2023-04-03T15:03:50;2.85;;;1.50;;
20170;SDS011;10245;51.344;6.620;2023-04-03T15:06:14;3.53;;;1.80;;
20170;SDS011;10245;51.344;6.620;2023-04-03T15:08:38;3.25;;;1.30;;
20170;SDS011;10245;51.344;6.620;2023-04-03T15:11:03;3.15;;;2.00;;
20170;SDS011;10245;51.344;6.620;2023-04-03T15:13:27;3.42;;;1.83;;
20170;SDS011;10245;51.344;6.620;2023-04-03T15:15:50;5.15;;;1.90;;